createdAt,value
2022-11-21T00:01:23.870Z,-1.15
2022-11-21T00:03:50.196Z,-1.12
2022-11-21T00:06:16.569Z,-1.03
2022-11-21T00:08:42.894Z,-1.06
2022-11-21T00:11:09.269Z,-1.06
2022-11-21T00:13:35.619Z,-1.06
2022-11-21T00:16:01.933Z,-1.11
2022-11-21T00:18:28.234Z,-0.97
2022-11-21T00:20:54.563Z,-1.02
2022-11-21T00:23:20.866Z,-0.98
2022-11-21T00:25:47.177Z,-1.00
2022-11-21T00:28:13.495Z,-0.98
2022-11-21T00:30:39.812Z,-0.88
2022-11-21T00:33:06.121Z,-0.92
2022-11-21T00:35:32.898Z,-0.93
2022-11-21T00:37:59.215Z,-0.95
2022-11-21T00:40:25.529Z,-0.84
2022-11-21T00:42:51.838Z,-0.80
2022-11-21T00:45:23.895Z,-0.79
2022-11-21T00:47:50.727Z,-0.94
2022-11-21T00:50:17.047Z,-0.86
2022-11-21T00:52:43.414Z,-0.77
2022-11-21T00:55:09.722Z,-0.77
2022-11-21T00:57:36.043Z,-0.71
2022-11-21T01:00:02.360Z,-0.77
2022-11-21T01:02:31.918Z,-0.85
2022-11-21T01:04:58.221Z,-0.81
2022-11-21T01:09:55.915Z,-0.69
2022-11-21T01:12:22.224Z,-0.54
2022-11-21T01:14:48.557Z,-0.62
2022-11-21T01:17:14.887Z,-0.55
2022-11-21T01:19:41.208Z,-0.58
2022-11-21T01:22:07.525Z,-0.65
2022-11-21T01:24:33.834Z,-0.61
2022-11-21T01:27:00.140Z,-0.61
2022-11-21T01:29:26.464Z,-0.46
2022-11-21T01:31:52.841Z,-0.40
2022-11-21T01:34:19.149Z,-0.32
2022-11-21T01:36:45.461Z,-0.37
2022-11-21T01:39:11.837Z,-0.28
2022-11-21T01:41:38.142Z,-0.22
2022-11-21T01:44:04.467Z,-0.20
2022-11-21T01:46:30.787Z,-0.19
2022-11-21T01:48:57.378Z,-0.09
2022-11-21T01:51:23.697Z,-0.02
2022-11-21T01:53:50.009Z,-0.04
2022-11-21T01:56:16.335Z,0.03
2022-11-21T01:58:42.689Z,0.08
2022-11-21T02:01:09.144Z,0.15
2022-11-21T02:03:35.519Z,0.17
2022-11-21T02:06:01.853Z,0.29
2022-11-21T02:08:28.170Z,0.30
2022-11-21T02:10:54.541Z,0.32
2022-11-21T02:13:22.863Z,0.33
2022-11-21T02:15:49.173Z,0.36
2022-11-21T02:18:15.478Z,0.45
2022-11-21T02:20:41.792Z,0.46
2022-11-21T02:23:08.103Z,0.49
2022-11-21T02:25:34.424Z,0.53
2022-11-21T02:28:00.721Z,0.55
2022-11-21T02:30:27.925Z,0.59
2022-11-21T02:32:54.241Z,0.52
2022-11-21T02:35:20.569Z,0.59
2022-11-21T02:37:46.914Z,0.59
2022-11-21T02:40:13.233Z,0.64
2022-11-21T02:42:39.553Z,0.59
2022-11-21T02:45:05.865Z,0.60
2022-11-21T02:47:32.233Z,0.63
2022-11-21T02:49:58.545Z,0.59
2022-11-21T02:52:24.894Z,0.63
2022-11-21T02:54:51.214Z,0.64
2022-11-21T02:57:17.569Z,0.64
2022-11-21T02:59:43.875Z,0.68
2022-11-21T03:02:10.182Z,0.64
2022-11-21T03:04:36.514Z,0.68
2022-11-21T03:07:02.919Z,0.78
2022-11-21T03:09:29.296Z,0.74
2022-11-21T03:11:55.634Z,0.73
2022-11-21T03:14:21.955Z,0.84
2022-11-21T03:16:48.257Z,0.84
2022-11-21T03:19:14.578Z,0.84
2022-11-21T03:21:40.906Z,0.90
2022-11-21T03:24:07.220Z,0.82
2022-11-21T03:26:33.540Z,0.79
2022-11-21T03:28:59.874Z,0.85
2022-11-21T03:31:26.207Z,0.85
2022-11-21T03:33:52.537Z,0.96
2022-11-21T03:36:18.854Z,0.95
2022-11-21T03:38:45.155Z,0.96
2022-11-21T03:41:29.320Z,1.04
2022-11-21T03:43:55.641Z,0.87
2022-11-21T03:46:21.960Z,1.00
2022-11-21T03:48:48.264Z,1.12
2022-11-21T03:51:14.593Z,1.11
2022-11-21T03:53:40.903Z,1.16
2022-11-21T03:56:07.210Z,1.19
2022-11-21T03:58:33.526Z,1.24
2022-11-21T04:00:59.980Z,1.24
2022-11-21T04:03:26.294Z,1.27
2022-11-21T04:05:52.613Z,1.27
2022-11-21T04:08:18.930Z,1.26
2022-11-21T04:10:45.244Z,1.32
2022-11-21T04:13:11.550Z,1.29
2022-11-21T04:15:37.872Z,1.28
2022-11-21T04:18:04.192Z,1.34
2022-11-21T04:20:30.508Z,1.34
2022-11-21T04:22:56.816Z,1.38
2022-11-21T04:25:23.121Z,1.46
2022-11-21T04:27:49.450Z,1.33
2022-11-21T04:30:15.783Z,1.28
2022-11-21T04:32:42.103Z,1.37
2022-11-21T04:35:08.414Z,1.42
2022-11-21T04:37:34.745Z,1.46
2022-11-21T04:40:01.058Z,1.45
2022-11-21T04:42:27.396Z,1.38
2022-11-21T04:44:53.786Z,1.43
2022-11-21T04:47:20.106Z,1.31
2022-11-21T04:49:46.422Z,1.43
2022-11-21T04:52:12.917Z,1.32
2022-11-21T04:54:39.288Z,1.31
2022-11-21T04:57:05.757Z,1.36
2022-11-21T04:59:32.099Z,1.26
2022-11-21T05:01:58.418Z,1.34
2022-11-21T05:04:24.790Z,1.33
2022-11-21T05:06:51.146Z,1.41
2022-11-21T05:09:17.755Z,1.35
2022-11-21T05:12:02.838Z,1.44
2022-11-21T05:14:29.399Z,1.27
2022-11-21T05:16:55.970Z,1.35
2022-11-21T05:19:22.302Z,1.37
2022-11-21T05:21:48.620Z,1.46
2022-11-21T05:24:14.930Z,1.46
2022-11-21T05:26:41.362Z,1.47
2022-11-21T05:29:07.672Z,1.39
2022-11-21T05:31:33.990Z,1.43
2022-11-21T05:34:00.289Z,1.34
2022-11-21T05:36:26.617Z,1.29
2022-11-21T05:38:52.943Z,1.47
2022-11-21T05:41:19.260Z,1.54
2022-11-21T05:43:49.118Z,1.52
2022-11-21T05:46:15.521Z,1.57
2022-11-21T05:48:41.838Z,1.40
2022-11-21T05:51:08.156Z,1.37
2022-11-21T05:53:34.463Z,1.52
2022-11-21T05:56:00.846Z,1.61
2022-11-21T05:58:27.150Z,1.29
2022-11-21T06:00:59.773Z,1.42
2022-11-21T06:03:31.000Z,1.31
2022-11-21T06:05:57.468Z,1.31
2022-11-21T06:08:23.769Z,1.13
2022-11-21T06:10:50.100Z,1.19
2022-11-21T06:13:22.664Z,1.29
2022-11-21T06:15:49.333Z,1.15
2022-11-21T06:18:15.669Z,1.08
2022-11-21T06:20:42.305Z,1.24
2022-11-21T06:23:08.671Z,1.27
2022-11-21T06:25:34.973Z,1.26
2022-11-21T06:28:01.295Z,1.21
2022-11-21T06:30:27.593Z,1.41
2022-11-21T06:32:53.973Z,1.40
2022-11-21T06:35:20.341Z,1.52
2022-11-21T06:37:50.747Z,1.47
2022-11-21T06:40:19.649Z,1.49
2022-11-21T06:42:46.009Z,1.57
2022-11-21T06:45:12.394Z,1.54
2022-11-21T06:47:38.707Z,1.63
2022-11-21T06:50:05.173Z,1.67
2022-11-21T06:52:31.474Z,1.54
2022-11-21T06:54:57.804Z,1.64
2022-11-21T06:57:24.101Z,1.68
2022-11-21T06:59:50.452Z,1.75
2022-11-21T07:02:16.766Z,1.78
2022-11-21T07:04:43.090Z,1.57
2022-11-21T07:07:09.526Z,1.44
2022-11-21T07:09:38.139Z,1.44
2022-11-21T07:12:23.254Z,1.51
2022-11-21T07:14:49.585Z,1.50
2022-11-21T07:17:16.091Z,1.39
2022-11-21T07:19:42.447Z,1.34
2022-11-21T07:22:08.769Z,1.30
2022-11-21T07:24:35.362Z,1.28
2022-11-21T07:27:01.679Z,1.23
2022-11-21T07:29:28.227Z,1.32
2022-11-21T07:31:54.777Z,1.14
2022-11-21T07:34:21.124Z,1.10
2022-11-21T07:36:48.786Z,1.04
2022-11-21T07:39:15.125Z,1.03
2022-11-21T07:41:41.452Z,1.02
2022-11-21T07:44:07.764Z,0.90
2022-11-21T07:46:35.793Z,0.98
2022-11-21T07:49:03.778Z,0.81
2022-11-21T07:51:30.345Z,0.76
2022-11-21T07:53:56.736Z,0.59
2022-11-21T07:56:26.617Z,0.58
2022-11-21T07:58:53.099Z,0.55
2022-11-21T08:01:19.496Z,0.49
2022-11-21T08:03:45.847Z,0.46
2022-11-21T08:06:12.331Z,0.40
2022-11-21T08:08:38.674Z,0.54
2022-11-21T08:11:05.253Z,0.29
2022-11-21T08:13:32.451Z,0.16
2022-11-21T08:15:58.799Z,0.07
2022-11-21T08:18:25.113Z,0.01
2022-11-21T08:20:51.426Z,0.05
2022-11-21T08:23:17.750Z,-0.17
2022-11-21T08:25:45.310Z,-0.26
2022-11-21T08:28:11.690Z,-0.19
2022-11-21T08:30:38.045Z,-0.14
2022-11-21T08:33:04.374Z,-0.25
2022-11-21T08:35:30.707Z,-0.34
2022-11-21T08:37:57.375Z,-0.41
2022-11-21T08:40:23.728Z,-0.21
2022-11-21T08:42:50.063Z,-0.29
2022-11-21T08:45:16.410Z,-0.52
2022-11-21T08:47:42.728Z,-0.37
2022-11-21T08:50:12.276Z,-0.30
2022-11-21T08:52:38.615Z,-0.49
2022-11-21T08:55:04.925Z,-0.35
2022-11-21T08:57:31.853Z,-0.50
2022-11-21T08:59:58.153Z,-0.45
2022-11-21T09:02:24.464Z,-0.52
2022-11-21T09:04:50.859Z,-0.53
2022-11-21T09:07:17.249Z,-0.42
2022-11-21T09:09:43.756Z,-0.49
2022-11-21T09:12:10.149Z,-0.50
2022-11-21T09:14:55.558Z,-0.50
2022-11-21T09:17:40.721Z,-0.45
2022-11-21T09:20:07.102Z,-0.46
2022-11-21T09:22:33.469Z,-0.45
2022-11-21T09:24:59.786Z,-0.59
2022-11-21T09:27:26.104Z,-0.61
2022-11-21T09:29:54.211Z,-0.56
2022-11-21T09:32:20.844Z,-0.52
2022-11-21T09:34:47.231Z,-0.40
2022-11-21T09:37:17.013Z,-0.52
2022-11-21T09:39:43.317Z,-0.52
2022-11-21T09:42:09.654Z,-0.27
2022-11-21T09:44:36.221Z,-0.29
2022-11-21T09:47:02.623Z,-0.44
2022-11-21T09:49:29.205Z,-0.45
2022-11-21T09:51:55.711Z,-0.50
2022-11-21T09:54:22.031Z,-0.37
2022-11-21T09:56:48.604Z,-0.38
2022-11-21T09:59:14.917Z,-0.41
2022-11-21T10:01:41.241Z,-0.38
2022-11-21T10:04:07.598Z,-0.35
2022-11-21T10:06:33.964Z,-0.09
2022-11-21T10:09:00.704Z,-0.13
2022-11-21T10:11:27.022Z,-0.13
2022-11-21T10:13:53.335Z,-0.09
2022-11-21T10:16:19.638Z,0.09
2022-11-21T10:18:46.000Z,-0.10
2022-11-21T10:21:12.368Z,-0.17
2022-11-21T10:23:38.693Z,-0.13
2022-11-21T10:26:05.097Z,0.08
2022-11-21T10:28:31.445Z,-0.20
2022-11-21T10:30:57.761Z,-0.35
2022-11-21T10:33:24.075Z,-0.10
2022-11-21T10:35:50.394Z,-0.11
2022-11-21T10:38:16.710Z,0.15
2022-11-21T10:40:43.073Z,0.11
2022-11-21T10:43:28.200Z,0.02
2022-11-21T10:45:54.553Z,0.03
2022-11-21T10:48:20.865Z,0.01
2022-11-21T10:50:47.203Z,-0.03
2022-11-21T10:53:32.422Z,0.09
2022-11-21T10:55:58.788Z,0.24
2022-11-21T10:58:25.391Z,0.01
2022-11-21T11:00:51.813Z,0.04
2022-11-21T11:03:18.420Z,0.15
2022-11-21T11:05:44.756Z,0.17
2022-11-21T11:08:11.100Z,0.09
2022-11-21T11:10:37.421Z,0.12
2022-11-21T11:13:51.231Z,0.31
2022-11-21T11:16:08.859Z,0.33
2022-11-21T11:18:35.291Z,0.71
2022-11-21T11:21:01.619Z,0.42
2022-11-21T11:23:28.050Z,0.58
2022-11-21T11:25:54.433Z,0.30
2022-11-21T11:28:20.987Z,0.38
2022-11-21T11:30:47.367Z,0.62
2022-11-21T11:33:13.681Z,0.68
2022-11-21T11:35:40.603Z,0.82
2022-11-21T11:38:07.189Z,0.89
2022-11-21T11:40:33.594Z,0.83
2022-11-21T11:43:18.925Z,1.01
2022-11-21T11:46:03.710Z,0.82
2022-11-21T11:48:30.091Z,1.07
2022-11-21T11:50:56.417Z,0.98
2022-11-21T11:53:22.769Z,0.82
2022-11-21T11:55:49.109Z,0.94
2022-11-21T11:58:15.435Z,0.94
2022-11-21T12:00:45.118Z,0.90
2022-11-21T12:03:11.434Z,1.01
2022-11-21T12:05:37.752Z,0.86
2022-11-21T12:08:40.040Z,0.94
2022-11-21T12:11:09.340Z,0.82
2022-11-21T12:13:35.708Z,0.77
2022-11-21T12:16:08.661Z,0.74
2022-11-21T12:18:39.355Z,0.56
2022-11-21T12:21:05.679Z,0.77
2022-11-21T12:23:32.266Z,0.89
2022-11-21T12:25:58.584Z,1.00
2022-11-21T12:28:24.962Z,0.90
2022-11-21T12:30:51.410Z,0.87
2022-11-21T12:33:17.735Z,0.80
2022-11-21T12:35:44.047Z,1.09
2022-11-21T12:38:10.373Z,0.90
2022-11-21T12:40:36.723Z,0.84
2022-11-21T12:43:04.653Z,0.97
2022-11-21T12:45:32.190Z,0.88
2022-11-21T12:48:17.386Z,0.99
2022-11-21T12:51:02.483Z,0.85
2022-11-21T12:53:47.487Z,0.76
2022-11-21T12:56:13.788Z,0.73
2022-11-21T12:58:40.100Z,1.21
2022-11-21T13:01:06.531Z,1.35
2022-11-21T13:03:33.581Z,1.05
2022-11-21T13:05:59.984Z,0.91
2022-11-21T13:08:26.320Z,1.24
2022-11-21T13:11:12.620Z,1.51
2022-11-21T13:13:39.116Z,1.61
2022-11-21T13:16:05.459Z,1.49
2022-11-21T13:18:31.838Z,1.36
2022-11-21T13:20:59.158Z,1.29
2022-11-21T13:23:25.535Z,1.62
2022-11-21T13:25:52.677Z,1.66
2022-11-21T13:28:19.058Z,1.65
2022-11-21T13:30:45.404Z,1.72
2022-11-21T13:33:11.986Z,1.59
2022-11-21T13:35:38.374Z,1.25
2022-11-21T13:38:04.767Z,1.62
2022-11-21T13:40:31.095Z,1.21
2022-11-21T13:43:25.181Z,1.08
2022-11-21T13:45:43.933Z,1.26
2022-11-21T13:48:10.273Z,1.15
2022-11-21T13:50:36.640Z,1.15
2022-11-21T13:53:03.059Z,1.54
2022-11-21T13:55:29.471Z,1.65
2022-11-21T13:57:57.727Z,1.86
2022-11-21T14:00:24.118Z,1.58
2022-11-21T14:02:50.470Z,1.73
2022-11-21T14:05:17.399Z,1.62
2022-11-21T14:07:43.951Z,1.74
2022-11-21T14:10:12.188Z,1.78
2022-11-21T14:12:44.324Z,1.87
2022-11-21T14:15:11.221Z,1.87
2022-11-21T14:17:37.624Z,1.78
2022-11-21T14:20:03.941Z,1.84
2022-11-21T14:22:34.747Z,1.67
2022-11-21T14:25:01.940Z,1.76
2022-11-21T14:27:28.298Z,1.60
2022-11-21T14:29:55.203Z,1.59
2022-11-21T14:32:21.551Z,1.50
2022-11-21T14:34:47.911Z,1.47
2022-11-21T14:37:14.278Z,1.50
2022-11-21T14:39:44.152Z,1.19
2022-11-21T14:42:11.579Z,1.28
2022-11-21T14:44:37.984Z,1.36
2022-11-21T14:47:04.376Z,1.26
2022-11-21T14:49:30.789Z,1.10
2022-11-21T14:51:57.152Z,1.16
2022-11-21T14:54:23.523Z,1.13
2022-11-21T14:56:49.952Z,1.05
2022-11-21T14:59:16.274Z,0.86
2022-11-21T15:01:47.551Z,1.03
2022-11-21T15:04:14.294Z,1.21
2022-11-21T15:06:40.630Z,1.25
2022-11-21T15:11:53.513Z,0.97
2022-11-21T15:14:19.938Z,0.98
2022-11-21T15:16:47.308Z,1.07
2022-11-21T15:19:13.804Z,0.84
2022-11-21T15:21:40.162Z,0.90
2022-11-21T15:24:06.561Z,0.90
2022-11-21T15:26:32.879Z,0.82
2022-11-21T15:28:59.247Z,0.85
2022-11-21T15:31:25.754Z,0.73
2022-11-21T15:34:06.430Z,0.86
2022-11-21T15:36:38.684Z,0.66
2022-11-21T15:39:05.594Z,0.64
2022-11-21T15:41:31.973Z,0.50
2022-11-21T15:43:58.279Z,0.56
2022-11-21T15:46:24.667Z,0.85
2022-11-21T15:48:51.048Z,0.85
2022-11-21T15:51:20.492Z,0.70
2022-11-21T15:53:58.342Z,0.80
2022-11-21T15:56:24.746Z,0.71
2022-11-21T15:58:51.126Z,0.62
2022-11-21T16:01:17.533Z,0.69
2022-11-21T16:03:43.998Z,0.74
2022-11-21T16:06:10.607Z,0.74
2022-11-21T16:08:36.988Z,0.53
2022-11-21T16:11:03.330Z,0.70
2022-11-21T16:13:29.673Z,0.62
2022-11-21T16:15:55.985Z,0.73
2022-11-21T16:18:22.671Z,0.68
2022-11-21T16:20:49.067Z,0.75
2022-11-21T16:23:15.379Z,0.53
2022-11-21T16:25:43.075Z,0.73
2022-11-21T16:28:09.406Z,0.60
2022-11-21T16:30:35.774Z,0.69
2022-11-21T16:33:02.086Z,0.93
2022-11-21T16:35:28.412Z,0.60
2022-11-21T16:37:54.794Z,0.71
2022-11-21T16:40:21.175Z,0.75
2022-11-21T16:42:47.550Z,0.78
2022-11-21T16:45:14.075Z,0.95
2022-11-21T16:47:44.370Z,0.96
2022-11-21T16:50:14.814Z,0.90
2022-11-21T16:52:41.119Z,0.87
2022-11-21T16:55:07.505Z,0.98
2022-11-21T16:57:34.059Z,1.10
2022-11-21T17:00:00.768Z,1.41
2022-11-21T17:02:27.161Z,1.56
2022-11-21T17:04:53.501Z,1.60
2022-11-21T17:07:19.887Z,1.52
2022-11-21T17:09:46.258Z,1.86
2022-11-21T17:12:13.465Z,1.81
2022-11-21T17:14:39.776Z,1.74
2022-11-21T17:17:06.100Z,1.75
2022-11-21T17:19:32.490Z,1.66
2022-11-21T17:22:00.217Z,1.61
2022-11-21T17:24:26.818Z,2.01
2022-11-21T17:26:53.304Z,2.18
2022-11-21T17:29:19.608Z,2.08
2022-11-21T17:31:47.040Z,2.06
2022-11-21T17:34:13.496Z,1.85
2022-11-21T17:36:39.947Z,1.64
2022-11-21T17:39:06.284Z,1.50
2022-11-21T17:41:32.747Z,1.40
2022-11-21T17:43:59.759Z,1.37
2022-11-21T17:46:26.213Z,1.32
2022-11-21T17:48:55.299Z,1.31
2022-11-21T17:51:23.941Z,1.26
2022-11-21T17:53:50.261Z,1.20
2022-11-21T17:56:16.572Z,1.22
2022-11-21T17:58:42.900Z,1.07
2022-11-21T18:01:10.610Z,0.95
2022-11-21T18:03:37.311Z,0.96
2022-11-21T18:06:03.633Z,0.84
2022-11-21T18:08:30.022Z,0.76
2022-11-21T18:10:56.456Z,0.74
2022-11-21T18:13:22.786Z,0.69
2022-11-21T18:15:49.142Z,0.62
2022-11-21T18:18:15.527Z,0.58
2022-11-21T18:20:41.860Z,0.53
2022-11-21T18:23:08.604Z,0.55
2022-11-21T18:25:34.959Z,0.51
2022-11-21T18:28:01.286Z,0.53
2022-11-21T18:30:27.598Z,0.45
2022-11-21T18:32:53.897Z,0.40
2022-11-21T18:35:20.242Z,0.36
2022-11-21T18:37:47.000Z,0.32
2022-11-21T18:40:13.346Z,0.34
2022-11-21T18:42:39.659Z,0.38
2022-11-21T18:45:05.991Z,0.36
2022-11-21T18:47:32.311Z,0.39
2022-11-21T18:49:58.622Z,0.41
2022-11-21T18:52:25.023Z,0.29
2022-11-21T18:54:51.333Z,0.32
2022-11-21T18:57:17.651Z,0.33
2022-11-21T18:59:44.079Z,0.33
2022-11-21T19:02:10.436Z,0.33
2022-11-21T19:04:36.766Z,0.35
2022-11-21T19:07:03.359Z,0.30
2022-11-21T19:09:32.681Z,0.26
2022-11-21T19:11:59.337Z,0.22
2022-11-21T19:14:25.788Z,0.24
2022-11-21T19:16:52.325Z,0.25
2022-11-21T19:19:35.269Z,0.29
2022-11-21T19:22:04.356Z,0.34
2022-11-21T19:24:30.665Z,0.76
2022-11-21T19:26:57.205Z,0.65
2022-11-21T19:29:23.520Z,1.14
2022-11-21T19:31:50.070Z,1.21
2022-11-21T19:34:16.596Z,1.21
2022-11-21T19:36:42.999Z,1.41
2022-11-21T19:39:09.371Z,1.37
2022-11-21T19:41:35.722Z,1.50
2022-11-21T19:44:02.054Z,1.53
2022-11-21T19:46:28.874Z,1.60
2022-11-21T19:48:55.278Z,1.59
2022-11-21T19:51:21.617Z,1.38
2022-11-21T19:53:47.983Z,1.20
2022-11-21T19:56:14.303Z,1.43
2022-11-21T19:58:40.613Z,1.47
2022-11-21T20:01:07.307Z,1.41
2022-11-21T20:03:33.737Z,1.52
2022-11-21T20:06:00.046Z,1.61
2022-11-21T20:08:26.380Z,1.57
2022-11-21T20:10:52.739Z,1.53
2022-11-21T20:13:19.077Z,1.44
2022-11-21T20:15:45.403Z,1.45
2022-11-21T20:18:12.647Z,1.44
2022-11-21T20:20:38.983Z,1.43
2022-11-21T20:23:05.719Z,1.44
2022-11-21T20:25:32.032Z,1.42
2022-11-21T20:28:01.575Z,1.39
2022-11-21T20:30:27.929Z,1.35
2022-11-21T20:32:54.653Z,1.31
2022-11-21T20:35:20.970Z,1.45
2022-11-21T20:37:47.274Z,1.40
2022-11-21T20:40:13.588Z,1.38
2022-11-21T20:42:40.406Z,1.24
2022-11-21T20:47:53.039Z,1.26
2022-11-21T20:50:48.693Z,1.21
2022-11-21T20:53:50.766Z,1.12
2022-11-21T20:55:52.140Z,0.98
2022-11-21T20:58:18.458Z,0.96
2022-11-21T21:00:44.801Z,0.77
2022-11-21T21:03:11.111Z,0.85
2022-11-21T21:05:37.454Z,1.05
2022-11-21T21:08:03.926Z,0.86
2022-11-21T21:10:46.005Z,0.87
2022-11-21T21:13:16.635Z,0.90
2022-11-21T21:15:42.962Z,0.59
2022-11-21T21:18:09.292Z,0.53
2022-11-21T21:20:49.353Z,0.46
2022-11-21T21:23:21.926Z,0.63
2022-11-21T21:25:48.239Z,0.81
2022-11-21T21:28:14.573Z,0.77
2022-11-21T21:30:41.192Z,0.80
2022-11-21T21:33:07.502Z,0.85
2022-11-21T21:35:33.842Z,0.84
2022-11-21T21:38:01.920Z,0.85
2022-11-21T21:40:33.112Z,0.91
2022-11-21T21:42:59.504Z,0.93
2022-11-21T21:45:25.809Z,0.84
2022-11-21T21:47:52.431Z,0.91
2022-11-21T21:50:18.733Z,0.92
2022-11-21T21:52:45.042Z,1.02
2022-11-21T21:55:11.892Z,1.03
2022-11-21T21:57:43.546Z,1.08
2022-11-21T22:00:12.448Z,1.11
2022-11-21T22:02:39.832Z,1.02
2022-11-21T22:05:06.149Z,0.99
2022-11-21T22:07:32.552Z,0.98
2022-11-21T22:09:58.921Z,1.01
2022-11-21T22:12:25.520Z,0.92
2022-11-21T22:14:51.818Z,0.90
2022-11-21T22:17:18.175Z,0.91
2022-11-21T22:19:44.487Z,0.94
2022-11-21T22:22:10.830Z,0.94
2022-11-21T22:24:39.483Z,0.93
2022-11-21T22:27:06.073Z,0.86
2022-11-21T22:29:32.394Z,0.80
2022-11-21T22:31:58.723Z,0.71
2022-11-21T22:34:25.114Z,0.80
2022-11-21T22:36:51.438Z,0.62
2022-11-21T22:39:18.152Z,0.60
2022-11-21T22:41:44.566Z,0.75
2022-11-21T22:44:10.896Z,0.85
2022-11-21T22:46:37.382Z,0.85
2022-11-21T22:49:03.811Z,0.91
2022-11-21T22:51:30.386Z,0.99
2022-11-21T22:53:56.741Z,0.97
2022-11-21T22:56:23.091Z,1.01
2022-11-21T22:58:49.421Z,1.05
2022-11-21T23:01:15.785Z,1.14
2022-11-21T23:03:42.165Z,1.20
2022-11-21T23:06:08.497Z,1.28
2022-11-21T23:08:34.821Z,1.36
2022-11-21T23:11:01.123Z,1.47
2022-11-21T23:13:27.484Z,1.43
2022-11-21T23:15:53.799Z,1.52
2022-11-21T23:18:20.102Z,1.60
2022-11-21T23:20:46.571Z,1.65
2022-11-21T23:23:12.919Z,1.66
2022-11-21T23:25:39.338Z,1.76
2022-11-21T23:28:05.699Z,1.83
2022-11-21T23:30:32.051Z,1.85
2022-11-21T23:32:58.364Z,1.85
2022-11-21T23:35:24.680Z,1.84
2022-11-21T23:37:51.015Z,1.80
2022-11-21T23:40:17.347Z,1.81
2022-11-21T23:42:43.732Z,1.76
2022-11-21T23:45:10.086Z,1.64
2022-11-21T23:47:36.416Z,1.65
2022-11-21T23:50:02.721Z,1.61
2022-11-21T23:52:29.082Z,1.54
2022-11-21T23:54:55.925Z,1.54
2022-11-21T23:57:22.221Z,1.51
2022-11-21T23:59:48.570Z,1.46
